createdAt,value
2023-04-26T00:04:28.602Z,5.94
2023-04-26T00:09:28.439Z,5.85
2023-04-26T00:14:28.367Z,5.75
2023-04-26T00:19:29.365Z,5.58
2023-04-26T00:24:28.258Z,5.45
2023-04-26T00:29:28.193Z,5.30
2023-04-26T00:34:28.103Z,5.18
2023-04-26T00:39:28.061Z,5.00
2023-04-26T00:44:28.016Z,4.94
2023-04-26T00:49:27.963Z,4.86
2023-04-26T00:54:27.933Z,4.73
2023-04-26T00:59:27.939Z,4.66
2023-04-26T01:04:27.866Z,4.60
2023-04-26T01:09:27.737Z,4.51
2023-04-26T01:14:27.703Z,4.42
2023-04-26T01:19:27.633Z,4.36
2023-04-26T01:24:27.554Z,4.26
2023-04-26T01:29:27.550Z,4.16
2023-04-26T01:34:27.450Z,4.15
2023-04-26T01:39:27.425Z,4.08
2023-04-26T01:44:27.365Z,4.02
2023-04-26T01:49:27.294Z,3.98
2023-04-26T01:54:27.221Z,3.94
2023-04-26T01:59:27.182Z,3.84
2023-04-26T02:04:27.245Z,3.76
2023-04-26T02:09:27.097Z,3.75
2023-04-26T02:14:27.056Z,3.68
2023-04-26T02:19:27.003Z,3.61
2023-04-26T02:24:26.952Z,3.51
2023-04-26T02:29:42.272Z,3.51
2023-04-26T02:34:27.935Z,3.43
2023-04-26T02:39:26.835Z,3.33
2023-04-26T02:44:26.742Z,3.39
2023-04-26T02:49:26.647Z,3.32
2023-04-26T02:54:26.736Z,3.31
2023-04-26T02:59:26.569Z,3.26
2023-04-26T03:04:26.508Z,3.14
2023-04-26T03:09:26.475Z,3.10
2023-04-26T03:14:26.367Z,3.06
2023-04-26T03:19:26.327Z,3.02
2023-04-26T03:24:26.299Z,2.90
2023-04-26T03:29:26.214Z,2.92
2023-04-26T03:34:26.205Z,2.84
2023-04-26T03:39:26.164Z,2.81
2023-04-26T03:44:26.068Z,2.79
2023-04-26T03:49:26.104Z,2.79
2023-04-26T03:54:25.973Z,2.77
2023-04-26T03:59:25.970Z,2.72
2023-04-26T04:04:29.585Z,2.74
2023-04-26T04:09:25.931Z,2.72
2023-04-26T04:14:25.730Z,2.72
2023-04-26T04:19:25.698Z,2.69
2023-04-26T04:24:25.795Z,2.74
2023-04-26T04:29:25.570Z,2.72
2023-04-26T04:34:25.528Z,2.71
2023-04-26T04:39:25.513Z,2.77
2023-04-26T04:44:25.428Z,2.84
2023-04-26T04:49:25.364Z,2.90
2023-04-26T04:54:25.340Z,2.97
2023-04-26T04:59:25.425Z,3.14
2023-04-26T05:04:25.501Z,3.28
2023-04-26T05:09:25.282Z,3.39
2023-04-26T05:14:25.161Z,3.62
2023-04-26T05:19:25.167Z,3.83
2023-04-26T05:24:24.990Z,3.98
2023-04-26T05:29:25.098Z,4.09
2023-04-26T05:34:24.908Z,4.29
2023-04-26T05:39:24.851Z,4.37
2023-04-26T05:44:24.785Z,4.75
2023-04-26T05:49:24.716Z,5.02
2023-04-26T05:54:24.665Z,5.45
2023-04-26T05:59:24.622Z,5.65
2023-04-26T06:04:24.594Z,5.89
2023-04-26T06:09:24.484Z,6.43
2023-04-26T06:19:24.369Z,6.99
2023-04-26T06:24:24.312Z,7.34
2023-04-26T06:29:24.370Z,7.68
2023-04-26T06:34:24.245Z,8.15
2023-04-26T06:39:24.154Z,8.40
2023-04-26T06:44:24.136Z,8.94
2023-04-26T06:49:24.033Z,9.40
2023-04-26T06:54:23.984Z,9.84
2023-04-26T06:59:23.994Z,10.22
2023-04-26T07:04:24.101Z,10.14
2023-04-26T07:09:23.833Z,10.42
2023-04-26T07:14:23.813Z,10.51
2023-04-26T07:19:23.738Z,10.34
2023-04-26T07:24:23.661Z,9.86
2023-04-26T07:29:23.609Z,10.12
2023-04-26T07:34:23.545Z,10.26
2023-04-26T07:39:23.502Z,10.36
2023-04-26T07:44:23.437Z,10.45
2023-04-26T07:49:23.408Z,11.25
2023-04-26T07:54:23.346Z,10.82
2023-04-26T07:59:23.299Z,11.40
2023-04-26T08:04:23.393Z,11.33
2023-04-26T08:09:23.163Z,11.44
2023-04-26T08:14:23.115Z,11.10
2023-04-26T08:19:23.063Z,11.61
2023-04-26T08:24:22.982Z,11.46
2023-04-26T08:29:22.969Z,10.70
2023-04-26T08:34:22.876Z,11.58
2023-04-26T08:39:22.825Z,11.79
2023-04-26T08:44:22.764Z,11.57
2023-04-26T08:49:22.754Z,11.64
2023-04-26T08:54:22.666Z,11.78
2023-04-26T08:59:22.611Z,11.37
2023-04-26T09:04:22.842Z,12.42
2023-04-26T09:09:22.513Z,13.48
2023-04-26T09:14:22.430Z,13.64
2023-04-26T09:19:22.429Z,13.11
2023-04-26T09:24:23.323Z,12.96
2023-04-26T09:29:22.298Z,12.74
2023-04-26T09:34:23.209Z,12.52
2023-04-26T09:39:22.173Z,12.31
2023-04-26T09:44:22.134Z,12.41
2023-04-26T09:49:22.063Z,11.80
2023-04-26T09:54:21.992Z,12.19
2023-04-26T09:59:21.953Z,12.28
2023-04-26T10:04:21.959Z,12.62
2023-04-26T10:09:21.952Z,12.79
2023-04-26T10:14:21.797Z,12.79
2023-04-26T10:19:21.749Z,13.25
2023-04-26T10:24:21.675Z,13.26
2023-04-26T10:29:21.639Z,13.20
2023-04-26T10:34:21.564Z,13.29
2023-04-26T10:39:21.523Z,13.51
2023-04-26T10:44:21.459Z,13.12
2023-04-26T10:49:21.414Z,12.77
2023-04-26T10:54:21.362Z,12.75
2023-04-26T11:04:21.350Z,12.77
2023-04-26T11:09:21.300Z,12.87
2023-04-26T11:14:21.169Z,13.19
2023-04-26T11:19:21.080Z,13.62
2023-04-26T11:24:20.994Z,13.38
2023-04-26T11:29:20.977Z,14.06
2023-04-26T11:34:20.887Z,12.86
2023-04-26T11:39:20.845Z,13.22
2023-04-26T11:44:20.762Z,13.28
2023-04-26T11:49:20.720Z,12.96
2023-04-26T11:54:20.686Z,13.54
2023-04-26T11:59:20.613Z,12.79
2023-04-26T12:04:20.674Z,13.62
2023-04-26T12:09:20.527Z,14.50
2023-04-26T12:14:20.480Z,14.61
2023-04-26T12:19:20.428Z,14.45
2023-04-26T12:24:20.372Z,13.77
2023-04-26T12:29:20.298Z,13.91
2023-04-26T12:34:20.242Z,13.85
2023-04-26T12:39:20.189Z,14.18
2023-04-26T12:44:22.221Z,14.12
2023-04-26T12:49:20.057Z,14.58
2023-04-26T12:54:20.046Z,14.86
2023-04-26T12:59:19.988Z,14.50
2023-04-26T13:04:20.054Z,14.95
2023-04-26T13:09:19.886Z,14.77
2023-04-26T13:14:19.816Z,14.39
2023-04-26T13:19:19.772Z,14.98
2023-04-26T13:24:19.717Z,14.96
2023-04-26T13:29:19.627Z,15.60
2023-04-26T13:34:19.587Z,15.59
2023-04-26T13:39:19.529Z,16.04
2023-04-26T13:44:19.449Z,15.62
2023-04-26T13:49:19.442Z,15.20
2023-04-26T13:54:19.391Z,15.41
2023-04-26T13:59:19.306Z,15.96
2023-04-26T14:04:19.370Z,15.62
2023-04-26T14:09:19.223Z,15.69
2023-04-26T14:14:19.161Z,16.00
2023-04-26T14:19:19.086Z,15.94
2023-04-26T14:24:19.023Z,14.98
2023-04-26T14:29:18.972Z,14.51
2023-04-26T14:34:18.925Z,13.99
2023-04-26T14:39:18.927Z,14.43
2023-04-26T14:44:18.921Z,14.57
2023-04-26T14:49:18.753Z,14.60
2023-04-26T14:54:18.731Z,14.15
2023-04-26T14:59:18.629Z,14.02
2023-04-26T15:04:18.673Z,14.09
2023-04-26T15:09:18.559Z,14.21
2023-04-26T15:14:18.516Z,14.45
2023-04-26T15:19:18.406Z,14.84
2023-04-26T15:24:18.373Z,14.54
2023-04-26T15:29:18.325Z,14.86
2023-04-26T15:34:27.096Z,15.07
2023-04-26T15:39:18.200Z,14.78
2023-04-26T15:44:18.189Z,14.47
2023-04-26T15:49:18.121Z,14.47
2023-04-26T15:54:18.037Z,14.24
2023-04-26T15:59:17.985Z,14.03
2023-04-26T16:04:18.116Z,14.27
2023-04-26T16:09:25.384Z,14.35
2023-04-26T16:14:18.826Z,14.29
2023-04-26T16:19:17.787Z,13.99
2023-04-26T16:24:17.759Z,13.95
2023-04-26T16:29:17.665Z,14.18
2023-04-26T16:34:17.612Z,14.17
2023-04-26T16:39:17.534Z,14.10
2023-04-26T16:44:17.523Z,14.04
2023-04-26T16:49:17.454Z,14.03
2023-04-26T16:54:17.443Z,13.67
2023-04-26T16:59:17.377Z,13.32
2023-04-26T17:04:17.375Z,13.12
2023-04-26T17:09:17.260Z,13.03
2023-04-26T17:14:17.198Z,12.68
2023-04-26T17:19:17.110Z,12.42
2023-04-26T17:24:17.091Z,12.42
2023-04-26T17:29:17.030Z,12.50
2023-04-26T17:34:16.963Z,12.67
2023-04-26T17:39:16.870Z,12.70
2023-04-26T17:44:16.811Z,12.70
2023-04-26T17:49:17.792Z,12.54
2023-04-26T17:54:16.744Z,12.52
2023-04-26T17:59:16.645Z,12.34
2023-04-26T18:04:16.861Z,11.96
2023-04-26T18:09:16.530Z,11.96
2023-04-26T18:14:16.526Z,12.12
2023-04-26T18:19:16.423Z,12.07
2023-04-26T18:24:16.394Z,11.80
2023-04-26T18:29:16.426Z,11.85
2023-04-26T18:34:16.284Z,11.70
2023-04-26T18:39:16.236Z,11.55
2023-04-26T18:44:16.145Z,11.51
2023-04-26T18:49:16.102Z,11.52
2023-04-26T18:54:16.059Z,11.54
2023-04-26T18:59:15.979Z,11.29
2023-04-26T19:04:16.147Z,11.21
2023-04-26T19:09:15.890Z,11.15
2023-04-26T19:14:15.835Z,11.17
2023-04-26T19:19:15.776Z,11.11
2023-04-26T19:24:15.726Z,10.88
2023-04-26T19:29:15.685Z,10.76
2023-04-26T19:34:15.631Z,10.70
2023-04-26T19:39:15.593Z,10.68
2023-04-26T19:44:15.505Z,10.63
2023-04-26T19:49:15.451Z,10.56
2023-04-26T19:54:15.381Z,10.48
2023-04-26T19:59:15.330Z,10.42
2023-04-26T20:04:15.382Z,10.34
2023-04-26T20:09:15.251Z,10.41
2023-04-26T20:14:15.183Z,10.38
2023-04-26T20:19:15.166Z,10.30
2023-04-26T20:24:15.053Z,10.30
2023-04-26T20:29:15.021Z,10.23
2023-04-26T20:34:14.953Z,10.18
2023-04-26T20:39:14.919Z,10.11
2023-04-26T20:44:14.869Z,10.08
2023-04-26T20:49:14.763Z,10.04
2023-04-26T20:54:14.713Z,10.04
2023-04-26T20:59:14.663Z,9.97
2023-04-26T21:04:14.730Z,9.84
2023-04-26T21:09:14.591Z,9.72
2023-04-26T21:14:14.486Z,9.61
2023-04-26T21:19:14.453Z,9.56
2023-04-26T21:24:14.434Z,9.47
2023-04-26T21:29:14.370Z,9.38
2023-04-26T21:34:15.292Z,9.31
2023-04-26T21:39:14.266Z,9.21
2023-04-26T21:44:14.200Z,9.18
2023-04-26T21:49:14.145Z,9.13
2023-04-26T21:54:14.073Z,9.08
2023-04-26T21:59:14.045Z,8.98
2023-04-26T22:04:14.144Z,8.92
2023-04-26T22:09:13.995Z,8.83
2023-04-26T22:14:13.893Z,8.73
2023-04-26T22:19:14.118Z,8.68
2023-04-26T22:24:13.749Z,8.62
2023-04-26T22:29:13.745Z,8.53
2023-04-26T22:34:13.630Z,8.48
2023-04-26T22:39:13.832Z,8.44
2023-04-26T22:44:13.530Z,8.34
2023-04-26T22:49:13.839Z,8.23
2023-04-26T22:54:13.412Z,8.16
2023-04-26T22:59:13.650Z,8.07
2023-04-26T23:04:13.359Z,7.97
2023-04-26T23:09:13.502Z,7.82
2023-04-26T23:14:13.236Z,7.69
2023-04-26T23:19:13.428Z,7.58
2023-04-26T23:24:13.112Z,7.46
2023-04-26T23:29:13.270Z,7.40
2023-04-26T23:34:12.961Z,7.27
2023-04-26T23:39:13.085Z,7.12
2023-04-26T23:44:12.835Z,7.02
2023-04-26T23:49:12.975Z,6.88
2023-04-26T23:54:12.774Z,6.74
2023-04-26T23:59:12.942Z,6.66
